sensor_id;sensor_type;location;lat;lon;timestamp;P1;P2;P0
42002;PMS7003;27693;50.506;30.832;2022-11-15T00:00:18;18.80;16.10;12.70
42002;PMS7003;27693;50.506;30.832;2022-11-15T00:01:39;17.50;15.00;11.10
42002;PMS7003;27693;50.506;30.832;2022-11-15T00:03:01;17.70;13.20;9.30
42002;PMS7003;27693;50.506;30.832;2022-11-15T00:04:21;14.80;14.80;11.40
42002;PMS7003;27693;50.506;30.832;2022-11-15T00:05:42;15.20;14.50;10.50
42002;PMS7003;27693;50.506;30.832;2022-11-15T00:07:03;16.90;14.40;10.10
42002;PMS7003;27693;50.506;30.832;2022-11-15T00:08:24;15.90;14.40;9.90
42002;PMS7003;27693;50.506;30.832;2022-11-15T00:09:46;13.50;12.50;9.30
42002;PMS7003;27693;50.506;30.832;2022-11-15T00:11:08;15.80;13.10;8.80
42002;PMS7003;27693;50.506;30.832;2022-11-15T00:12:30;15.70;13.40;9.00
42002;PMS7003;27693;50.506;30.832;2022-11-15T00:13:51;14.40;12.00;9.50
42002;PMS7003;27693;50.506;30.832;2022-11-15T00:15:24;15.00;12.60;10.30
42002;PMS7003;27693;50.506;30.832;2022-11-15T00:16:45;12.90;12.50;9.00
42002;PMS7003;27693;50.506;30.832;2022-11-15T00:18:06;17.20;13.20;9.20
42002;PMS7003;27693;50.506;30.832;2022-11-15T00:19:28;17.80;14.70;10.70
42002;PMS7003;27693;50.506;30.832;2022-11-15T00:20:49;15.20;12.80;10.00
42002;PMS7003;27693;50.506;30.832;2022-11-15T00:22:09;16.10;11.00;8.10
42002;PMS7003;27693;50.506;30.832;2022-11-15T00:23:29;14.80;12.40;9.00
42002;PMS7003;27693;50.506;30.832;2022-11-15T00:24:50;16.50;14.40;10.20
42002;PMS7003;27693;50.506;30.832;2022-11-15T00:26:12;19.20;15.30;10.20
42002;PMS7003;27693;50.506;30.832;2022-11-15T00:27:34;16.00;14.50;10.90
42002;PMS7003;27693;50.506;30.832;2022-11-15T00:28:54;18.40;14.90;10.60
42002;PMS7003;27693;50.506;30.832;2022-11-15T00:30:15;15.40;14.60;10.30
42002;PMS7003;27693;50.506;30.832;2022-11-15T00:31:36;19.20;15.60;11.70
42002;PMS7003;27693;50.506;30.832;2022-11-15T00:33:01;16.80;14.80;11.00
42002;PMS7003;27693;50.506;30.832;2022-11-15T00:34:24;15.20;11.50;9.00
42002;PMS7003;27693;50.506;30.832;2022-11-15T00:35:44;17.20;15.70;10.00
42002;PMS7003;27693;50.506;30.832;2022-11-15T00:37:05;17.20;14.80;11.40
42002;PMS7003;27693;50.506;30.832;2022-11-15T00:38:30;20.20;15.90;12.20
42002;PMS7003;27693;50.506;30.832;2022-11-15T00:39:53;17.10;15.00;10.50
42002;PMS7003;27693;50.506;30.832;2022-11-15T00:41:14;17.30;14.20;11.30
42002;PMS7003;27693;50.506;30.832;2022-11-15T00:42:35;18.30;14.60;11.40
42002;PMS7003;27693;50.506;30.832;2022-11-15T00:43:55;20.20;15.10;10.70
42002;PMS7003;27693;50.506;30.832;2022-11-15T00:45:16;16.40;13.90;10.50
42002;PMS7003;27693;50.506;30.832;2022-11-15T00:46:37;18.90;14.80;10.10
42002;PMS7003;27693;50.506;30.832;2022-11-15T00:47:57;19.20;14.60;10.70
42002;PMS7003;27693;50.506;30.832;2022-11-15T00:49:19;17.90;16.00;11.70
42002;PMS7003;27693;50.506;30.832;2022-11-15T00:50:39;18.90;16.40;10.50
42002;PMS7003;27693;50.506;30.832;2022-11-15T00:52:00;17.30;14.60;11.30
42002;PMS7003;27693;50.506;30.832;2022-11-15T00:53:21;16.80;14.80;11.10
42002;PMS7003;27693;50.506;30.832;2022-11-15T00:54:41;17.50;13.60;9.80
42002;PMS7003;27693;50.506;30.832;2022-11-15T00:56:03;17.00;14.30;9.40
42002;PMS7003;27693;50.506;30.832;2022-11-15T00:57:23;16.10;14.10;9.40
42002;PMS7003;27693;50.506;30.832;2022-11-15T00:58:44;19.60;14.80;11.50
42002;PMS7003;27693;50.506;30.832;2022-11-15T01:00:07;16.70;14.10;10.10
42002;PMS7003;27693;50.506;30.832;2022-11-15T01:01:29;11.40;11.00;8.00
42002;PMS7003;27693;50.506;30.832;2022-11-15T01:02:49;17.10;13.30;10.00
42002;PMS7003;27693;50.506;30.832;2022-11-15T01:04:10;19.40;15.00;9.60
42002;PMS7003;27693;50.506;30.832;2022-11-15T01:05:31;13.70;12.20;9.20
42002;PMS7003;27693;50.506;30.832;2022-11-15T01:06:51;14.80;12.70;9.50
42002;PMS7003;27693;50.506;30.832;2022-11-15T01:08:12;13.20;12.90;9.80
42002;PMS7003;27693;50.506;30.832;2022-11-15T01:09:33;16.60;11.10;7.70
42002;PMS7003;27693;50.506;30.832;2022-11-15T01:10:54;12.10;11.30;8.40
42002;PMS7003;27693;50.506;30.832;2022-11-15T01:12:17;15.50;12.60;9.50
42002;PMS7003;27693;50.506;30.832;2022-11-15T01:13:38;20.40;13.60;9.20
42002;PMS7003;27693;50.506;30.832;2022-11-15T01:15:01;16.70;13.20;10.10
42002;PMS7003;27693;50.506;30.832;2022-11-15T01:16:21;16.60;12.90;9.50
42002;PMS7003;27693;50.506;30.832;2022-11-15T01:17:42;17.80;15.00;10.90
42002;PMS7003;27693;50.506;30.832;2022-11-15T01:19:03;11.70;9.80;7.80
42002;PMS7003;27693;50.506;30.832;2022-11-15T01:20:23;16.90;13.60;10.60
42002;PMS7003;27693;50.506;30.832;2022-11-15T01:21:44;15.10;12.10;8.80
42002;PMS7003;27693;50.506;30.832;2022-11-15T01:23:05;16.50;13.40;9.40
42002;PMS7003;27693;50.506;30.832;2022-11-15T01:24:25;16.70;14.70;11.40
42002;PMS7003;27693;50.506;30.832;2022-11-15T01:25:45;13.30;12.10;9.50
42002;PMS7003;27693;50.506;30.832;2022-11-15T01:27:06;14.50;11.30;7.60
42002;PMS7003;27693;50.506;30.832;2022-11-15T01:28:34;17.00;13.90;11.20
42002;PMS7003;27693;50.506;30.832;2022-11-15T01:29:57;15.70;12.90;10.40
42002;PMS7003;27693;50.506;30.832;2022-11-15T01:31:18;13.90;12.90;8.10
42002;PMS7003;27693;50.506;30.832;2022-11-15T01:32:40;15.40;12.40;9.40
42002;PMS7003;27693;50.506;30.832;2022-11-15T01:34:00;15.80;13.70;10.50
42002;PMS7003;27693;50.506;30.832;2022-11-15T01:35:21;16.50;14.10;9.90
42002;PMS7003;27693;50.506;30.832;2022-11-15T01:36:42;15.10;13.00;10.60
42002;PMS7003;27693;50.506;30.832;2022-11-15T01:38:02;14.40;11.70;9.00
42002;PMS7003;27693;50.506;30.832;2022-11-15T01:39:23;19.00;12.50;8.70
42002;PMS7003;27693;50.506;30.832;2022-11-15T01:40:44;9.70;6.50;4.90
42002;PMS7003;27693;50.506;30.832;2022-11-15T01:42:04;14.30;13.70;9.20
42002;PMS7003;27693;50.506;30.832;2022-11-15T01:43:27;12.90;12.00;9.60
42002;PMS7003;27693;50.506;30.832;2022-11-15T01:44:51;16.50;13.80;10.10
42002;PMS7003;27693;50.506;30.832;2022-11-15T01:47:45;9.90;5.90;4.00
42002;PMS7003;27693;50.506;30.832;2022-11-15T01:49:14;13.60;12.40;9.30
42002;PMS7003;27693;50.506;30.832;2022-11-15T01:50:38;15.20;13.60;10.10
42002;PMS7003;27693;50.506;30.832;2022-11-15T01:52:00;15.90;12.40;9.70
42002;PMS7003;27693;50.506;30.832;2022-11-15T01:53:23;14.60;12.80;10.00
42002;PMS7003;27693;50.506;30.832;2022-11-15T01:54:47;16.80;14.20;10.40
42002;PMS7003;27693;50.506;30.832;2022-11-15T01:57:40;14.40;13.00;11.20
42002;PMS7003;27693;50.506;30.832;2022-11-15T01:59:04;16.80;13.70;11.10
42002;PMS7003;27693;50.506;30.832;2022-11-15T02:00:28;17.80;15.00;12.00
42002;PMS7003;27693;50.506;30.832;2022-11-15T02:01:49;14.60;12.80;10.30
42002;PMS7003;27693;50.506;30.832;2022-11-15T02:03:11;14.80;14.80;12.10
42002;PMS7003;27693;50.506;30.832;2022-11-15T02:04:32;16.40;13.60;10.60
42002;PMS7003;27693;50.506;30.832;2022-11-15T02:05:56;15.70;14.30;10.70
42002;PMS7003;27693;50.506;30.832;2022-11-15T02:07:19;15.60;13.90;12.00
42002;PMS7003;27693;50.506;30.832;2022-11-15T02:08:41;14.90;13.00;10.20
42002;PMS7003;27693;50.506;30.832;2022-11-15T02:10:08;13.70;12.20;8.40
42002;PMS7003;27693;50.506;30.832;2022-11-15T02:11:30;16.30;12.90;10.60
42002;PMS7003;27693;50.506;30.832;2022-11-15T02:12:51;20.10;13.60;11.00
42002;PMS7003;27693;50.506;30.832;2022-11-15T02:14:14;16.40;15.40;12.20
42002;PMS7003;27693;50.506;30.832;2022-11-15T02:15:40;13.40;11.90;9.70
42002;PMS7003;27693;50.506;30.832;2022-11-15T02:18:52;17.10;13.90;11.20
42002;PMS7003;27693;50.506;30.832;2022-11-15T02:34:58;14.20;13.10;10.90
42002;PMS7003;27693;50.506;30.832;2022-11-15T02:39:35;14.30;11.50;8.20
42002;PMS7003;27693;50.506;30.832;2022-11-15T02:41:24;20.00;15.90;12.20
42002;PMS7003;27693;50.506;30.832;2022-11-15T02:42:45;17.70;17.10;12.40
42002;PMS7003;27693;50.506;30.832;2022-11-15T02:44:07;18.20;15.40;11.80
42002;PMS7003;27693;50.506;30.832;2022-11-15T02:45:32;18.70;16.10;12.30
42002;PMS7003;27693;50.506;30.832;2022-11-15T02:46:59;19.60;17.10;13.00
42002;PMS7003;27693;50.506;30.832;2022-11-15T02:48:22;18.00;14.70;10.80
42002;PMS7003;27693;50.506;30.832;2022-11-15T02:49:52;17.10;16.00;12.40
42002;PMS7003;27693;50.506;30.832;2022-11-15T02:51:15;22.50;19.10;15.80
42002;PMS7003;27693;50.506;30.832;2022-11-15T02:52:36;20.40;16.50;12.50
42002;PMS7003;27693;50.506;30.832;2022-11-15T02:53:57;21.70;19.00;14.80
42002;PMS7003;27693;50.506;30.832;2022-11-15T02:55:27;18.70;15.10;11.30
42002;PMS7003;27693;50.506;30.832;2022-11-15T02:56:58;17.50;14.90;12.50
42002;PMS7003;27693;50.506;30.832;2022-11-15T03:00:08;24.80;23.20;17.50
42002;PMS7003;27693;50.506;30.832;2022-11-15T03:05:04;25.20;21.60;15.70
42002;PMS7003;27693;50.506;30.832;2022-11-15T03:06:55;21.80;18.50;13.40
42002;PMS7003;27693;50.506;30.832;2022-11-15T03:09:52;20.50;18.10;13.10
42002;PMS7003;27693;50.506;30.832;2022-11-15T03:11:18;15.60;14.50;13.40
42002;PMS7003;27693;50.506;30.832;2022-11-15T03:14:25;21.10;19.20;16.10
42002;PMS7003;27693;50.506;30.832;2022-11-15T03:16:00;17.80;16.90;11.90
42002;PMS7003;27693;50.506;30.832;2022-11-15T03:17:30;16.70;16.30;13.70
42002;PMS7003;27693;50.506;30.832;2022-11-15T03:19:09;18.90;17.30;14.30
42002;PMS7003;27693;50.506;30.832;2022-11-15T03:20:48;18.50;17.40;12.80
42002;PMS7003;27693;50.506;30.832;2022-11-15T03:22:12;19.40;17.20;13.70
42002;PMS7003;27693;50.506;30.832;2022-11-15T03:23:38;22.40;19.90;14.80
42002;PMS7003;27693;50.506;30.832;2022-11-15T03:25:00;24.20;21.50;15.90
42002;PMS7003;27693;50.506;30.832;2022-11-15T03:26:24;17.30;13.70;11.30
42002;PMS7003;27693;50.506;30.832;2022-11-15T03:27:48;19.60;17.90;13.40
42002;PMS7003;27693;50.506;30.832;2022-11-15T03:29:20;20.60;15.50;13.00
42002;PMS7003;27693;50.506;30.832;2022-11-15T03:30:49;16.50;15.40;11.00
42002;PMS7003;27693;50.506;30.832;2022-11-15T03:32:18;20.20;17.60;13.90
42002;PMS7003;27693;50.506;30.832;2022-11-15T03:33:37;19.90;18.30;13.60
42002;PMS7003;27693;50.506;30.832;2022-11-15T03:35:03;20.60;15.20;12.20
42002;PMS7003;27693;50.506;30.832;2022-11-15T03:36:26;20.90;15.90;12.00
42002;PMS7003;27693;50.506;30.832;2022-11-15T03:39:13;20.50;17.20;12.70
42002;PMS7003;27693;50.506;30.832;2022-11-15T03:40:38;18.10;15.30;12.10
42002;PMS7003;27693;50.506;30.832;2022-11-15T03:44:58;13.00;10.90;6.60
42002;PMS7003;27693;50.506;30.832;2022-11-15T03:46:22;4.60;2.40;1.90
42002;PMS7003;27693;50.506;30.832;2022-11-15T03:47:59;20.60;16.70;11.80
42002;PMS7003;27693;50.506;30.832;2022-11-15T03:49:27;17.50;15.90;11.20
42002;PMS7003;27693;50.506;30.832;2022-11-15T03:50:52;18.40;15.60;11.40
42002;PMS7003;27693;50.506;30.832;2022-11-15T03:52:14;19.30;13.40;10.20
42002;PMS7003;27693;50.506;30.832;2022-11-15T03:53:40;13.60;12.40;10.20
42002;PMS7003;27693;50.506;30.832;2022-11-15T03:55:02;16.70;15.00;11.70
42002;PMS7003;27693;50.506;30.832;2022-11-15T03:56:26;15.60;14.30;10.80
42002;PMS7003;27693;50.506;30.832;2022-11-15T03:57:50;15.50;13.50;10.60
42002;PMS7003;27693;50.506;30.832;2022-11-15T03:59:14;19.50;16.70;11.10
42002;PMS7003;27693;50.506;30.832;2022-11-15T04:00:34;12.60;10.50;6.60
42002;PMS7003;27693;50.506;30.832;2022-11-15T04:01:55;17.30;15.10;11.70
42002;PMS7003;27693;50.506;30.832;2022-11-15T04:03:15;19.60;14.90;11.80
42002;PMS7003;27693;50.506;30.832;2022-11-15T04:04:36;14.80;14.00;10.60
42002;PMS7003;27693;50.506;30.832;2022-11-15T04:05:57;14.50;14.50;11.30
42002;PMS7003;27693;50.506;30.832;2022-11-15T04:07:17;17.10;14.10;10.80
42002;PMS7003;27693;50.506;30.832;2022-11-15T04:08:38;20.00;15.50;12.30
42002;PMS7003;27693;50.506;30.832;2022-11-15T04:09:59;15.20;13.00;10.30
42002;PMS7003;27693;50.506;30.832;2022-11-15T04:11:20;20.90;14.40;11.40
42002;PMS7003;27693;50.506;30.832;2022-11-15T04:12:42;16.30;14.00;10.50
42002;PMS7003;27693;50.506;30.832;2022-11-15T04:14:05;17.70;13.70;11.00
42002;PMS7003;27693;50.506;30.832;2022-11-15T04:15:27;14.80;13.20;11.70
42002;PMS7003;27693;50.506;30.832;2022-11-15T04:16:48;17.80;13.40;10.00
42002;PMS7003;27693;50.506;30.832;2022-11-15T04:18:10;18.20;16.50;12.50
42002;PMS7003;27693;50.506;30.832;2022-11-15T04:19:30;14.70;12.10;9.30
42002;PMS7003;27693;50.506;30.832;2022-11-15T04:20:51;18.10;15.10;11.80
42002;PMS7003;27693;50.506;30.832;2022-11-15T04:22:12;17.80;15.50;11.10
42002;PMS7003;27693;50.506;30.832;2022-11-15T04:23:33;16.90;15.40;11.00
42002;PMS7003;27693;50.506;30.832;2022-11-15T04:24:54;20.00;17.20;11.20
42002;PMS7003;27693;50.506;30.832;2022-11-15T04:26:15;16.20;13.70;11.30
42002;PMS7003;27693;50.506;30.832;2022-11-15T04:27:39;17.20;14.70;11.60
42002;PMS7003;27693;50.506;30.832;2022-11-15T04:29:00;18.50;15.20;11.80
42002;PMS7003;27693;50.506;30.832;2022-11-15T04:30:21;14.80;12.90;9.80
42002;PMS7003;27693;50.506;30.832;2022-11-15T04:31:41;16.50;12.10;8.90
42002;PMS7003;27693;50.506;30.832;2022-11-15T04:33:03;13.30;10.30;7.00
42002;PMS7003;27693;50.506;30.832;2022-11-15T04:34:24;19.40;16.40;11.50
42002;PMS7003;27693;50.506;30.832;2022-11-15T04:35:44;16.10;15.00;10.40
42002;PMS7003;27693;50.506;30.832;2022-11-15T04:37:05;18.50;14.30;11.30
42002;PMS7003;27693;50.506;30.832;2022-11-15T04:38:26;19.10;15.70;11.80
42002;PMS7003;27693;50.506;30.832;2022-11-15T04:39:46;18.80;15.30;11.40
42002;PMS7003;27693;50.506;30.832;2022-11-15T04:41:07;12.00;11.10;5.90
42002;PMS7003;27693;50.506;30.832;2022-11-15T04:42:28;19.80;16.50;12.10
42002;PMS7003;27693;50.506;30.832;2022-11-15T04:43:50;18.40;14.90;11.90
42002;PMS7003;27693;50.506;30.832;2022-11-15T04:45:10;19.60;14.90;11.30
42002;PMS7003;27693;50.506;30.832;2022-11-15T04:46:31;21.10;17.60;12.30
42002;PMS7003;27693;50.506;30.832;2022-11-15T04:47:52;21.30;16.40;11.50
42002;PMS7003;27693;50.506;30.832;2022-11-15T04:49:12;21.80;18.50;13.00
42002;PMS7003;27693;50.506;30.832;2022-11-15T04:50:33;17.60;13.50;10.90
42002;PMS7003;27693;50.506;30.832;2022-11-15T04:51:53;16.50;13.90;11.60
42002;PMS7003;27693;50.506;30.832;2022-11-15T04:53:14;20.90;17.60;12.80
42002;PMS7003;27693;50.506;30.832;2022-11-15T04:54:35;23.60;18.50;13.20
42002;PMS7003;27693;50.506;30.832;2022-11-15T04:55:55;20.10;18.10;13.40
42002;PMS7003;27693;50.506;30.832;2022-11-15T04:57:16;20.40;16.70;12.40
42002;PMS7003;27693;50.506;30.832;2022-11-15T04:58:37;18.20;14.10;10.20
42002;PMS7003;27693;50.506;30.832;2022-11-15T04:59:57;17.30;15.90;12.60
42002;PMS7003;27693;50.506;30.832;2022-11-15T05:01:18;16.20;13.30;9.60
42002;PMS7003;27693;50.506;30.832;2022-11-15T05:02:39;18.00;12.20;10.50
42002;PMS7003;27693;50.506;30.832;2022-11-15T05:04:01;18.30;15.20;10.40
42002;PMS7003;27693;50.506;30.832;2022-11-15T05:05:23;18.80;16.70;11.80
42002;PMS7003;27693;50.506;30.832;2022-11-15T05:06:49;18.10;14.10;10.40
42002;PMS7003;27693;50.506;30.832;2022-11-15T05:08:11;14.50;11.90;7.90
42002;PMS7003;27693;50.506;30.832;2022-11-15T05:09:32;18.00;14.50;11.00
42002;PMS7003;27693;50.506;30.832;2022-11-15T05:10:52;21.10;16.50;11.80
42002;PMS7003;27693;50.506;30.832;2022-11-15T05:12:13;21.90;16.80;12.10
42002;PMS7003;27693;50.506;30.832;2022-11-15T05:13:33;19.60;15.10;11.10
42002;PMS7003;27693;50.506;30.832;2022-11-15T05:14:54;16.40;15.30;10.50
42002;PMS7003;27693;50.506;30.832;2022-11-15T05:16:15;19.60;16.00;12.70
42002;PMS7003;27693;50.506;30.832;2022-11-15T05:17:36;22.20;15.00;10.80
42002;PMS7003;27693;50.506;30.832;2022-11-15T05:18:56;17.50;15.90;10.90
42002;PMS7003;27693;50.506;30.832;2022-11-15T05:20:17;18.30;16.00;11.10
42002;PMS7003;27693;50.506;30.832;2022-11-15T05:21:38;19.70;14.40;10.10
42002;PMS7003;27693;50.506;30.832;2022-11-15T05:22:59;18.30;14.60;10.00
42002;PMS7003;27693;50.506;30.832;2022-11-15T05:24:20;18.80;16.30;10.50
42002;PMS7003;27693;50.506;30.832;2022-11-15T05:25:41;24.90;18.50;12.80
42002;PMS7003;27693;50.506;30.832;2022-11-15T05:27:02;24.80;19.10;13.00
42002;PMS7003;27693;50.506;30.832;2022-11-15T05:28:22;18.30;16.40;11.70
42002;PMS7003;27693;50.506;30.832;2022-11-15T05:29:42;19.50;16.20;11.00
42002;PMS7003;27693;50.506;30.832;2022-11-15T05:31:07;17.50;15.00;11.10
42002;PMS7003;27693;50.506;30.832;2022-11-15T05:32:29;25.40;20.10;15.10
42002;PMS7003;27693;50.506;30.832;2022-11-15T05:33:51;41.70;34.50;22.00
42002;PMS7003;27693;50.506;30.832;2022-11-15T05:35:15;24.80;20.00;12.50
42002;PMS7003;27693;50.506;30.832;2022-11-15T05:36:48;24.20;17.70;12.80
42002;PMS7003;27693;50.506;30.832;2022-11-15T05:38:09;19.30;16.90;12.40
42002;PMS7003;27693;50.506;30.832;2022-11-15T05:39:30;20.60;16.80;12.40
42002;PMS7003;27693;50.506;30.832;2022-11-15T05:40:50;24.30;16.30;11.90
42002;PMS7003;27693;50.506;30.832;2022-11-15T05:42:11;20.90;18.20;11.90
42002;PMS7003;27693;50.506;30.832;2022-11-15T05:43:34;19.70;19.60;13.20
42002;PMS7003;27693;50.506;30.832;2022-11-15T05:44:57;21.80;16.80;12.30
42002;PMS7003;27693;50.506;30.832;2022-11-15T05:46:19;23.50;19.50;12.60
42002;PMS7003;27693;50.506;30.832;2022-11-15T05:47:40;20.20;16.90;10.40
42002;PMS7003;27693;50.506;30.832;2022-11-15T05:49:02;26.10;21.90;14.30
42002;PMS7003;27693;50.506;30.832;2022-11-15T05:50:25;23.80;19.20;12.60
42002;PMS7003;27693;50.506;30.832;2022-11-15T05:51:47;25.00;19.30;12.60
42002;PMS7003;27693;50.506;30.832;2022-11-15T05:53:10;16.80;14.60;11.70
42002;PMS7003;27693;50.506;30.832;2022-11-15T05:54:34;25.90;18.70;11.60
42002;PMS7003;27693;50.506;30.832;2022-11-15T05:55:56;23.20;17.90;12.00
42002;PMS7003;27693;50.506;30.832;2022-11-15T05:57:19;24.50;18.10;13.60
42002;PMS7003;27693;50.506;30.832;2022-11-15T05:58:40;25.60;22.80;13.30
42002;PMS7003;27693;50.506;30.832;2022-11-15T06:00:03;24.80;20.00;13.50
42002;PMS7003;27693;50.506;30.832;2022-11-15T06:01:24;22.00;19.60;13.60
42002;PMS7003;27693;50.506;30.832;2022-11-15T06:02:46;23.80;18.00;11.70
42002;PMS7003;27693;50.506;30.832;2022-11-15T06:04:07;24.80;19.40;11.20
42002;PMS7003;27693;50.506;30.832;2022-11-15T06:05:27;25.10;20.50;12.50
42002;PMS7003;27693;50.506;30.832;2022-11-15T06:06:49;20.70;14.40;10.00
42002;PMS7003;27693;50.506;30.832;2022-11-15T06:08:09;23.30;21.00;13.90
42002;PMS7003;27693;50.506;30.832;2022-11-15T06:09:30;21.90;17.30;12.10
42002;PMS7003;27693;50.506;30.832;2022-11-15T06:10:52;19.40;18.90;13.70
42002;PMS7003;27693;50.506;30.832;2022-11-15T06:12:13;24.70;18.50;11.70
42002;PMS7003;27693;50.506;30.832;2022-11-15T06:13:34;10.80;7.90;1.90
42002;PMS7003;27693;50.506;30.832;2022-11-15T06:14:55;13.20;11.40;7.80
42002;PMS7003;27693;50.506;30.832;2022-11-15T06:16:17;21.60;13.60;10.10
42002;PMS7003;27693;50.506;30.832;2022-11-15T06:17:37;23.80;18.70;11.80
42002;PMS7003;27693;50.506;30.832;2022-11-15T06:18:58;23.70;19.50;13.10
42002;PMS7003;27693;50.506;30.832;2022-11-15T06:20:18;20.60;17.50;11.50
42002;PMS7003;27693;50.506;30.832;2022-11-15T06:21:39;21.30;17.00;10.30
42002;PMS7003;27693;50.506;30.832;2022-11-15T06:23:00;22.90;18.30;12.10
42002;PMS7003;27693;50.506;30.832;2022-11-15T06:24:22;21.00;18.70;11.40
42002;PMS7003;27693;50.506;30.832;2022-11-15T06:25:45;24.60;18.70;12.60
42002;PMS7003;27693;50.506;30.832;2022-11-15T06:27:05;24.60;18.50;13.40
42002;PMS7003;27693;50.506;30.832;2022-11-15T06:28:30;22.60;18.60;12.80
42002;PMS7003;27693;50.506;30.832;2022-11-15T06:29:52;23.30;17.60;10.90
42002;PMS7003;27693;50.506;30.832;2022-11-15T06:31:12;22.00;19.70;13.10
42002;PMS7003;27693;50.506;30.832;2022-11-15T06:32:33;20.50;17.90;12.80
42002;PMS7003;27693;50.506;30.832;2022-11-15T06:33:53;25.00;22.90;15.80
42002;PMS7003;27693;50.506;30.832;2022-11-15T06:35:15;25.50;20.30;14.20
42002;PMS7003;27693;50.506;30.832;2022-11-15T06:36:36;24.20;19.80;14.10
42002;PMS7003;27693;50.506;30.832;2022-11-15T06:38:01;20.70;16.90;10.70
42002;PMS7003;27693;50.506;30.832;2022-11-15T06:39:25;23.60;19.10;14.10
42002;PMS7003;27693;50.506;30.832;2022-11-15T06:40:45;27.90;21.80;13.90
42002;PMS7003;27693;50.506;30.832;2022-11-15T06:42:07;18.80;15.10;10.00
42002;PMS7003;27693;50.506;30.832;2022-11-15T06:43:28;25.10;21.20;12.20
42002;PMS7003;27693;50.506;30.832;2022-11-15T06:44:49;25.70;19.60;13.80
42002;PMS7003;27693;50.506;30.832;2022-11-15T06:46:10;31.30;28.30;19.20
42002;PMS7003;27693;50.506;30.832;2022-11-15T06:47:30;32.10;24.40;14.60
42002;PMS7003;27693;50.506;30.832;2022-11-15T06:48:51;25.40;20.20;12.70
42002;PMS7003;27693;50.506;30.832;2022-11-15T06:50:13;23.50;18.90;13.30
42002;PMS7003;27693;50.506;30.832;2022-11-15T06:51:33;24.00;20.50;12.00
42002;PMS7003;27693;50.506;30.832;2022-11-15T06:52:54;28.40;22.50;14.30
42002;PMS7003;27693;50.506;30.832;2022-11-15T06:54:15;20.90;17.70;12.30
42002;PMS7003;27693;50.506;30.832;2022-11-15T06:55:35;27.30;20.50;13.70
42002;PMS7003;27693;50.506;30.832;2022-11-15T06:56:56;26.00;21.70;13.60
42002;PMS7003;27693;50.506;30.832;2022-11-15T06:58:17;24.20;20.20;13.00
42002;PMS7003;27693;50.506;30.832;2022-11-15T06:59:37;31.80;22.70;14.70
42002;PMS7003;27693;50.506;30.832;2022-11-15T07:01:01;30.40;23.20;15.20
42002;PMS7003;27693;50.506;30.832;2022-11-15T07:02:23;23.40;18.80;12.80
42002;PMS7003;27693;50.506;30.832;2022-11-15T07:03:45;22.30;19.10;11.90
42002;PMS7003;27693;50.506;30.832;2022-11-15T07:05:05;20.70;15.80;12.40
42002;PMS7003;27693;50.506;30.832;2022-11-15T07:06:26;28.10;20.90;14.80
42002;PMS7003;27693;50.506;30.832;2022-11-15T07:07:53;29.20;22.80;14.30
42002;PMS7003;27693;50.506;30.832;2022-11-15T07:09:14;24.10;20.00;12.40
42002;PMS7003;27693;50.506;30.832;2022-11-15T07:10:35;24.60;19.70;12.60
42002;PMS7003;27693;50.506;30.832;2022-11-15T07:11:55;29.30;23.10;13.90
42002;PMS7003;27693;50.506;30.832;2022-11-15T07:13:16;23.10;19.40;11.70
42002;PMS7003;27693;50.506;30.832;2022-11-15T07:14:38;25.60;20.70;12.90
42002;PMS7003;27693;50.506;30.832;2022-11-15T07:16:02;23.70;22.00;12.10
42002;PMS7003;27693;50.506;30.832;2022-11-15T07:17:26;24.60;19.40;12.60
42002;PMS7003;27693;50.506;30.832;2022-11-15T07:18:46;23.20;18.80;11.70
42002;PMS7003;27693;50.506;30.832;2022-11-15T07:20:07;24.40;19.10;11.60
42002;PMS7003;27693;50.506;30.832;2022-11-15T07:21:28;24.00;19.50;14.50
42002;PMS7003;27693;50.506;30.832;2022-11-15T07:22:50;23.80;16.90;10.90
42002;PMS7003;27693;50.506;30.832;2022-11-15T07:24:11;21.40;18.70;11.90
42002;PMS7003;27693;50.506;30.832;2022-11-15T07:25:31;29.00;21.90;14.30
42002;PMS7003;27693;50.506;30.832;2022-11-15T07:26:52;21.90;18.10;11.20
42002;PMS7003;27693;50.506;30.832;2022-11-15T07:28:12;31.80;27.00;16.20
42002;PMS7003;27693;50.506;30.832;2022-11-15T07:29:33;38.20;27.10;16.20
42002;PMS7003;27693;50.506;30.832;2022-11-15T07:30:54;31.10;23.10;15.70
42002;PMS7003;27693;50.506;30.832;2022-11-15T07:32:15;29.40;24.60;17.00
42002;PMS7003;27693;50.506;30.832;2022-11-15T07:33:35;22.10;19.70;11.90
42002;PMS7003;27693;50.506;30.832;2022-11-15T07:34:56;23.60;20.50;14.50
42002;PMS7003;27693;50.506;30.832;2022-11-15T07:36:17;28.30;19.50;12.60
42002;PMS7003;27693;50.506;30.832;2022-11-15T07:37:37;23.00;20.50;13.60
42002;PMS7003;27693;50.506;30.832;2022-11-15T07:38:58;15.40;13.50;10.00
42002;PMS7003;27693;50.506;30.832;2022-11-15T07:40:18;17.50;14.70;9.30
42002;PMS7003;27693;50.506;30.832;2022-11-15T07:41:38;19.50;14.80;9.10
42002;PMS7003;27693;50.506;30.832;2022-11-15T07:43:00;17.70;11.20;6.00
42002;PMS7003;27693;50.506;30.832;2022-11-15T07:44:22;22.50;13.60;9.10
42002;PMS7003;27693;50.506;30.832;2022-11-15T07:45:44;20.00;15.90;10.90
42002;PMS7003;27693;50.506;30.832;2022-11-15T07:47:06;23.30;16.80;11.20
42002;PMS7003;27693;50.506;30.832;2022-11-15T07:48:26;22.30;16.80;12.20
42002;PMS7003;27693;50.506;30.832;2022-11-15T07:49:48;15.90;13.80;7.60
42002;PMS7003;27693;50.506;30.832;2022-11-15T07:51:13;16.90;13.50;9.30
42002;PMS7003;27693;50.506;30.832;2022-11-15T07:52:34;19.70;13.20;8.10
42002;PMS7003;27693;50.506;30.832;2022-11-15T07:53:54;17.30;16.30;10.10
42002;PMS7003;27693;50.506;30.832;2022-11-15T07:55:16;20.80;17.20;12.30
42002;PMS7003;27693;50.506;30.832;2022-11-15T07:56:37;16.40;15.00;8.90
42002;PMS7003;27693;50.506;30.832;2022-11-15T07:58:00;18.30;15.80;9.40
42002;PMS7003;27693;50.506;30.832;2022-11-15T07:59:28;16.90;12.90;8.40
42002;PMS7003;27693;50.506;30.832;2022-11-15T08:00:49;14.50;10.10;7.30
42002;PMS7003;27693;50.506;30.832;2022-11-15T08:02:10;19.40;15.50;10.70
42002;PMS7003;27693;50.506;30.832;2022-11-15T08:03:30;16.60;14.70;10.10
42002;PMS7003;27693;50.506;30.832;2022-11-15T08:04:53;17.20;13.70;10.30
42002;PMS7003;27693;50.506;30.832;2022-11-15T08:06:14;21.70;14.70;9.60
42002;PMS7003;27693;50.506;30.832;2022-11-15T08:07:34;25.40;18.80;13.20
42002;PMS7003;27693;50.506;30.832;2022-11-15T08:08:55;20.80;14.50;8.50
42002;PMS7003;27693;50.506;30.832;2022-11-15T08:10:16;17.40;14.70;11.50
42002;PMS7003;27693;50.506;30.832;2022-11-15T08:11:37;17.00;9.20;5.40